createdAt,value
2022-08-14T00:01:54.695Z,4.32
2022-08-14T00:06:52.099Z,4.55
2022-08-14T00:11:48.618Z,5.13
2022-08-14T00:16:45.349Z,4.82
2022-08-14T00:21:41.847Z,5.37
2022-08-14T00:26:38.597Z,4.27
2022-08-14T00:31:44.253Z,5.20
2022-08-14T00:36:49.113Z,4.60
2022-08-14T00:41:47.635Z,4.72
2022-08-14T00:46:45.639Z,5.32
2022-08-14T00:51:44.536Z,4.90
2022-08-14T00:56:41.030Z,4.22
2022-08-14T01:01:39.163Z,4.78
2022-08-14T01:06:37.799Z,4.43
2022-08-14T01:11:38.754Z,4.28
2022-08-14T01:16:41.563Z,4.65
2022-08-14T01:21:46.774Z,4.43
2022-08-14T01:26:50.708Z,4.00
2022-08-14T01:31:52.275Z,3.95
2022-08-14T01:36:49.147Z,4.78
2022-08-14T01:41:56.238Z,4.37
2022-08-14T01:47:01.171Z,4.00
2022-08-14T01:51:57.783Z,4.43
2022-08-14T01:56:57.449Z,3.85
2022-08-14T02:01:58.833Z,4.10
2022-08-14T02:06:55.610Z,4.90
2022-08-14T02:11:54.694Z,5.63
2022-08-14T02:16:54.215Z,5.75
2022-08-14T02:21:54.690Z,6.00
2022-08-14T02:28:18.951Z,5.88
2022-08-14T02:32:11.131Z,5.43
2022-08-14T02:37:26.745Z,6.20
2022-08-14T02:42:54.390Z,5.00
2022-08-14T02:47:57.348Z,5.10
2022-08-14T02:52:57.520Z,5.90
2022-08-14T02:58:03.718Z,5.85
2022-08-14T03:03:03.086Z,5.55
2022-08-14T03:08:11.215Z,5.47
2022-08-14T03:13:13.676Z,5.78
2022-08-14T03:18:18.538Z,5.15
2022-08-14T03:23:15.005Z,6.47
2022-08-14T03:28:14.361Z,5.47
2022-08-14T03:33:27.876Z,5.93
2022-08-14T03:39:14.271Z,5.30
2022-08-14T03:43:57.757Z,6.53
2022-08-14T03:48:57.974Z,5.72
2022-08-14T03:53:59.779Z,5.28
2022-08-14T03:59:04.251Z,5.72
2022-08-14T04:04:08.273Z,5.03
2022-08-14T04:09:07.108Z,5.50
2022-08-14T04:14:05.892Z,6.68
2022-08-14T04:19:04.594Z,5.20
2022-08-14T04:29:08.671Z,5.10
2022-08-14T04:34:20.655Z,5.97
2022-08-14T04:39:38.997Z,4.85
2022-08-14T04:44:43.498Z,5.10
2022-08-14T04:49:57.344Z,5.05
2022-08-14T04:54:55.322Z,5.65
2022-08-14T04:59:54.598Z,5.63
2022-08-14T05:04:58.710Z,5.65
2022-08-14T05:09:55.344Z,5.18
2022-08-14T05:14:54.533Z,5.32
2022-08-14T05:21:54.366Z,6.10
2022-08-14T05:30:07.451Z,5.55
2022-08-14T05:35:05.342Z,5.90
2022-08-14T05:40:02.048Z,5.70
2022-08-14T05:44:59.528Z,5.25
2022-08-14T05:49:58.193Z,4.82
2022-08-14T05:54:54.745Z,5.10
2022-08-14T05:59:51.101Z,5.40
2022-08-14T06:04:49.325Z,5.07
2022-08-14T06:09:52.321Z,4.53
2022-08-14T06:14:48.985Z,4.40
2022-08-14T06:19:45.446Z,4.30
2022-08-14T06:24:43.988Z,4.93
2022-08-14T06:29:40.695Z,4.20
2022-08-14T06:35:11.764Z,4.63
2022-08-14T06:39:55.788Z,4.60
2022-08-14T06:44:53.311Z,4.23
2022-08-14T06:49:57.697Z,4.50
2022-08-14T06:54:55.307Z,4.38
2022-08-14T06:59:52.140Z,5.10
2022-08-14T07:05:11.493Z,4.78
2022-08-14T07:10:17.813Z,4.43
2022-08-14T07:15:14.386Z,4.93
2022-08-14T07:20:11.087Z,4.45
2022-08-14T07:25:10.379Z,6.03
2022-08-14T07:35:24.009Z,4.10
2022-08-14T07:40:27.767Z,4.90
2022-08-14T07:45:26.588Z,5.28
2022-08-14T07:50:34.412Z,4.32
2022-08-14T07:55:31.569Z,5.43
2022-08-14T08:00:31.166Z,4.68
2022-08-14T08:05:28.052Z,4.45
2022-08-14T08:11:01.506Z,4.55
2022-08-14T08:15:53.826Z,4.47
2022-08-14T08:20:53.657Z,4.35
2022-08-14T08:25:51.625Z,4.60
2022-08-14T08:30:53.000Z,5.03
2022-08-14T08:35:50.414Z,4.30
2022-08-14T08:40:51.895Z,4.25
2022-08-14T08:46:09.149Z,4.82
2022-08-14T08:51:30.921Z,5.00
2022-08-14T08:56:49.991Z,4.75
2022-08-14T09:01:58.801Z,4.88
2022-08-14T09:07:09.112Z,4.85
2022-08-14T09:12:13.879Z,4.88
2022-08-14T09:17:11.696Z,4.55
2022-08-14T09:22:33.060Z,4.32
2022-08-14T09:27:25.284Z,5.20
2022-08-14T09:32:59.402Z,5.18
2022-08-14T09:38:04.818Z,4.72
2022-08-14T09:43:32.974Z,5.05
2022-08-14T09:48:30.936Z,4.63
2022-08-14T09:54:18.204Z,4.75
2022-08-14T09:59:22.232Z,5.32
2022-08-14T10:04:33.173Z,4.88
2022-08-14T10:09:34.728Z,5.00
2022-08-14T10:14:36.322Z,4.50
2022-08-14T10:19:35.941Z,4.50
2022-08-14T10:24:46.301Z,4.32
2022-08-14T10:29:52.785Z,4.47
2022-08-14T10:34:52.484Z,4.18
2022-08-14T10:40:10.418Z,5.00
2022-08-14T10:45:23.003Z,4.30
2022-08-14T10:50:35.306Z,5.05
2022-08-14T10:55:39.345Z,4.60
2022-08-14T11:00:55.494Z,4.13
2022-08-14T11:05:55.933Z,3.70
2022-08-14T11:10:57.738Z,4.43
2022-08-14T11:16:00.413Z,3.58
2022-08-14T11:21:00.589Z,3.88
2022-08-14T11:26:00.459Z,4.07
2022-08-14T11:30:57.427Z,3.85
2022-08-14T11:35:53.808Z,3.63
2022-08-14T11:40:58.240Z,3.90
2022-08-14T11:45:57.203Z,4.13
2022-08-14T11:50:54.435Z,3.83
2022-08-14T11:55:57.841Z,4.40
2022-08-14T12:00:59.900Z,4.00
2022-08-14T12:06:21.594Z,3.85
2022-08-14T12:11:24.687Z,3.92
2022-08-14T12:16:22.716Z,3.90
2022-08-14T12:21:22.237Z,3.60
2022-08-14T12:26:39.632Z,3.70
2022-08-14T12:31:46.717Z,4.03
2022-08-14T12:36:43.671Z,3.22
2022-08-14T12:41:53.871Z,3.30
2022-08-14T12:47:03.555Z,3.92
2022-08-14T12:52:03.429Z,3.35
2022-08-14T12:57:19.346Z,3.47
2022-08-14T13:02:25.441Z,3.28
2022-08-14T13:07:24.108Z,3.28
2022-08-14T13:12:32.391Z,3.10
2022-08-14T13:17:38.114Z,3.42
2022-08-14T13:22:38.562Z,3.50
2022-08-14T13:27:40.575Z,3.28
2022-08-14T13:32:40.572Z,3.30
2022-08-14T13:37:37.224Z,3.80
2022-08-14T13:42:34.673Z,3.93
2022-08-14T13:47:32.931Z,3.25
2022-08-14T13:52:55.903Z,3.03
2022-08-14T13:58:04.587Z,2.80
2022-08-14T14:03:06.104Z,3.50
2022-08-14T14:08:05.127Z,2.63
2022-08-14T14:13:04.394Z,3.17
2022-08-14T14:18:02.337Z,3.00
2022-08-14T14:23:02.294Z,3.20
2022-08-14T14:28:00.279Z,2.90
2022-08-14T14:33:05.194Z,3.30
2022-08-14T14:38:08.921Z,3.50
2022-08-14T14:43:11.149Z,3.20
2022-08-14T14:48:09.207Z,3.47
2022-08-14T14:53:12.759Z,2.95
2022-08-14T14:58:10.268Z,2.97
2022-08-14T15:03:10.605Z,3.25
2022-08-14T15:08:06.969Z,3.08
2022-08-14T15:13:05.202Z,3.38
2022-08-14T15:18:02.098Z,3.17
2022-08-14T15:23:08.219Z,3.05
2022-08-14T15:28:13.094Z,3.08
2022-08-14T15:33:37.820Z,3.20
2022-08-14T15:38:55.935Z,3.17
2022-08-14T15:43:53.325Z,2.97
2022-08-14T15:48:53.612Z,2.58
2022-08-14T15:53:52.303Z,2.83
2022-08-14T15:58:48.636Z,3.00
2022-08-14T16:03:48.241Z,3.17
2022-08-14T16:08:50.367Z,3.10
2022-08-14T16:13:57.357Z,3.15
2022-08-14T16:18:58.906Z,2.88
2022-08-14T16:23:56.375Z,3.03
2022-08-14T16:29:02.459Z,2.97
2022-08-14T16:34:00.450Z,3.05
2022-08-14T16:39:16.795Z,3.53
2022-08-14T16:44:23.164Z,3.45
2022-08-14T16:49:50.567Z,4.60
2022-08-14T16:54:48.120Z,3.10
2022-08-14T16:59:52.884Z,3.38
2022-08-14T17:05:21.527Z,3.15
2022-08-14T17:10:27.898Z,3.78
2022-08-14T17:15:25.728Z,4.10
2022-08-14T17:20:53.604Z,3.60
2022-08-14T17:25:51.146Z,3.90
2022-08-14T17:30:51.906Z,3.53
2022-08-14T17:35:58.424Z,3.95
2022-08-14T17:41:15.839Z,3.88
2022-08-14T17:46:17.220Z,3.55
2022-08-14T17:51:14.477Z,3.65
2022-08-14T17:56:11.089Z,3.95
2022-08-14T18:01:12.641Z,3.50
2022-08-14T18:06:38.780Z,4.00
2022-08-14T18:11:27.226Z,3.58
2022-08-14T18:16:43.338Z,3.45
2022-08-14T18:21:57.343Z,3.65
2022-08-14T18:27:09.155Z,4.32
2022-08-14T18:32:38.386Z,3.67
2022-08-14T18:37:55.839Z,3.92
2022-08-14T18:42:58.174Z,4.28
2022-08-14T18:53:12.723Z,4.22
2022-08-14T18:58:27.792Z,4.05
2022-08-14T19:03:34.220Z,4.32
2022-08-14T19:08:45.364Z,4.30
2022-08-14T19:13:48.467Z,4.60
2022-08-14T19:19:00.250Z,4.72
2022-08-14T19:24:27.139Z,4.38
2022-08-14T19:29:37.514Z,4.22
2022-08-14T19:34:52.235Z,3.95
2022-08-14T19:39:55.428Z,4.75
2022-08-14T19:44:53.832Z,4.22
2022-08-14T19:50:08.752Z,4.25
2022-08-14T19:55:18.055Z,4.00
2022-08-14T20:00:28.270Z,4.63
2022-08-14T20:05:26.576Z,4.97
2022-08-14T20:11:04.939Z,4.15
2022-08-14T20:15:53.972Z,4.50
2022-08-14T20:20:50.392Z,4.90
2022-08-14T20:25:56.649Z,4.57
2022-08-14T20:31:15.749Z,4.47
2022-08-14T20:36:26.520Z,4.43
2022-08-14T20:41:23.612Z,5.05
2022-08-14T20:46:29.549Z,4.93
2022-08-14T20:51:37.097Z,4.88
2022-08-14T20:56:37.876Z,4.70
2022-08-14T21:01:36.099Z,4.82
2022-08-14T21:07:22.751Z,4.60
2022-08-14T21:12:03.005Z,4.82
2022-08-14T21:17:00.010Z,4.95
2022-08-14T21:21:57.260Z,4.90
2022-08-14T21:32:20.804Z,4.38
2022-08-14T21:37:17.519Z,4.07
2022-08-14T21:42:14.092Z,4.57
2022-08-14T21:47:16.076Z,4.35
2022-08-14T21:52:49.451Z,5.57
2022-08-14T21:57:56.068Z,4.70
2022-08-14T22:02:52.852Z,4.90
2022-08-14T22:07:54.193Z,5.20
2022-08-14T22:13:00.465Z,4.82
2022-08-14T22:17:59.664Z,5.47
2022-08-14T22:22:58.111Z,4.93
2022-08-14T22:27:55.835Z,4.28
2022-08-14T22:32:57.747Z,5.20
2022-08-14T22:38:01.692Z,5.28
2022-08-14T22:43:12.131Z,4.45
2022-08-14T22:48:12.752Z,4.40
2022-08-14T22:53:12.412Z,4.40
2022-08-14T22:58:08.825Z,4.60
2022-08-14T23:03:17.574Z,4.45
2022-08-14T23:08:57.536Z,4.30
2022-08-14T23:13:32.914Z,4.18
2022-08-14T23:18:30.244Z,3.97
2022-08-14T23:23:27.175Z,3.67
2022-08-14T23:28:34.074Z,4.22
2022-08-14T23:33:45.644Z,4.55
2022-08-14T23:38:48.927Z,4.43
2022-08-14T23:43:54.380Z,4.35
2022-08-14T23:48:50.851Z,5.00
2022-08-14T23:53:51.427Z,4.70
2022-08-14T23:58:49.090Z,5.32
